createdAt,value
2022-09-18T00:03:30.283Z,96916.94
2022-09-18T00:08:33.794Z,96923.31
2022-09-18T00:13:38.886Z,96918.25
2022-09-18T00:18:44.802Z,96909.75
2022-09-18T00:23:48.472Z,96920.56
2022-09-18T00:28:52.356Z,96912.88
2022-09-18T00:33:58.026Z,96914.69
2022-09-18T00:39:02.578Z,96910.13
2022-09-18T00:44:36.825Z,96910.53
2022-09-18T00:49:45.545Z,96905.50
2022-09-18T00:54:53.783Z,96910.53
2022-09-18T00:59:58.145Z,96920.25
2022-09-18T01:05:03.284Z,96936.28
2022-09-18T01:10:24.219Z,96937.69
2022-09-18T01:15:35.077Z,96941.06
2022-09-18T01:21:05.221Z,96949.56
2022-09-18T01:26:24.653Z,96949.91
2022-09-18T01:31:32.709Z,96956.75
2022-09-18T01:36:41.339Z,96956.19
2022-09-18T01:41:50.934Z,96952.91
2022-09-18T01:47:01.815Z,96950.84
2022-09-18T01:52:13.531Z,96948.69
2022-09-18T01:57:25.168Z,96945.31
2022-09-18T02:02:39.216Z,96949.50
2022-09-18T02:07:50.247Z,96949.34
2022-09-18T02:12:59.203Z,96946.78
2022-09-18T02:18:09.862Z,96954.19
2022-09-18T02:23:17.438Z,96941.84
2022-09-18T02:28:24.548Z,96943.13
2022-09-18T02:33:31.899Z,96934.44
2022-09-18T02:38:44.031Z,96931.13
2022-09-18T02:43:55.501Z,96931.31
2022-09-18T02:49:11.271Z,96915.34
2022-09-18T02:54:24.257Z,96932.84
2022-09-18T02:59:34.662Z,96922.47
2022-09-18T03:04:39.627Z,96932.78
2022-09-18T03:09:47.232Z,96941.75
2022-09-18T03:14:52.303Z,96948.16
2022-09-18T03:19:57.266Z,96940.81
2022-09-18T03:25:00.706Z,96947.22
2022-09-18T03:30:04.739Z,96944.72
2022-09-18T03:35:11.687Z,96952.72
2022-09-18T03:40:15.920Z,96951.63
2022-09-18T03:45:20.200Z,96949.28
2022-09-18T03:50:25.297Z,96944.63
2022-09-18T03:55:29.754Z,96938.53
2022-09-18T04:00:51.980Z,96946.19
2022-09-18T04:06:08.528Z,96950.50
2022-09-18T04:11:34.588Z,96963.13
2022-09-18T04:16:38.334Z,96969.59
2022-09-18T04:21:43.437Z,96965.91
2022-09-18T04:26:49.474Z,96967.91
2022-09-18T04:31:56.022Z,96972.69
2022-09-18T04:37:05.806Z,96963.97
2022-09-18T04:42:13.415Z,96975.22
2022-09-18T04:47:17.406Z,96970.19
2022-09-18T04:52:22.360Z,96961.09
2022-09-18T04:57:25.976Z,96968.13
2022-09-18T05:02:29.944Z,96962.88
2022-09-18T05:07:35.374Z,96973.44
2022-09-18T05:12:41.063Z,96973.56
2022-09-18T05:17:44.831Z,96976.78
2022-09-18T05:22:50.324Z,96984.78
2022-09-18T05:27:59.687Z,96984.75
2022-09-18T05:33:09.348Z,96988.06
2022-09-18T05:38:17.151Z,96987.97
2022-09-18T05:43:22.153Z,96978.00
2022-09-18T05:48:26.676Z,96980.13
2022-09-18T05:53:31.933Z,96981.25
2022-09-18T05:58:42.377Z,96985.63
2022-09-18T06:03:45.980Z,97012.69
2022-09-18T06:08:51.270Z,96993.13
2022-09-18T06:13:56.658Z,96995.44
2022-09-18T06:19:00.144Z,96993.50
2022-09-18T06:24:05.353Z,96996.34
2022-09-18T06:29:18.038Z,96994.34
2022-09-18T06:34:30.050Z,96993.84
2022-09-18T06:39:41.321Z,96997.47
2022-09-18T06:44:47.069Z,96986.81
2022-09-18T06:49:52.173Z,96984.13
2022-09-18T06:54:57.301Z,96993.25
2022-09-18T07:00:10.009Z,96979.94
2022-09-18T07:05:15.368Z,96987.38
2022-09-18T07:10:22.475Z,96989.78
2022-09-18T07:15:27.502Z,96981.19
2022-09-18T07:20:31.231Z,96991.31
2022-09-18T07:25:36.578Z,96995.88
2022-09-18T07:30:41.579Z,97000.19
2022-09-18T07:35:45.297Z,96991.72
2022-09-18T07:40:52.579Z,96994.06
2022-09-18T07:46:08.382Z,96996.03
2022-09-18T07:51:12.637Z,97001.63
2022-09-18T07:56:20.627Z,96994.25
2022-09-18T08:01:27.195Z,96999.53
2022-09-18T08:06:34.028Z,96993.53
2022-09-18T08:12:06.619Z,96996.06
2022-09-18T08:17:28.417Z,96996.34
2022-09-18T08:22:42.615Z,96991.16
2022-09-18T08:27:49.296Z,96996.31
2022-09-18T08:33:02.475Z,96988.94
2022-09-18T08:38:06.964Z,96999.13
2022-09-18T08:44:02.158Z,96994.91
2022-09-18T08:49:22.018Z,96998.72
2022-09-18T08:54:41.516Z,96992.59
2022-09-18T09:00:24.497Z,96988.09
2022-09-18T09:05:44.561Z,96976.25
2022-09-18T09:10:57.181Z,96984.06
2022-09-18T09:16:08.884Z,96976.06
2022-09-18T09:21:22.057Z,96981.81
2022-09-18T09:26:32.342Z,96974.09
2022-09-18T09:32:04.941Z,96972.63
2022-09-18T09:37:38.217Z,96983.03
2022-09-18T09:42:47.638Z,96986.53
2022-09-18T09:48:02.841Z,96987.22
2022-09-18T09:53:12.866Z,96963.91
2022-09-18T09:58:30.372Z,96953.63
2022-09-18T10:03:45.876Z,96960.78
2022-09-18T10:08:58.172Z,96968.69
2022-09-18T10:14:06.800Z,96956.50
2022-09-18T10:19:16.304Z,96950.19
2022-09-18T10:24:31.264Z,96951.47
2022-09-18T10:29:40.630Z,96943.44
2022-09-18T10:34:50.906Z,96942.59
2022-09-18T10:39:59.997Z,96940.81
2022-09-18T10:45:07.627Z,96946.38
2022-09-18T10:50:20.900Z,96936.56
2022-09-18T10:55:28.436Z,96925.22
2022-09-18T11:00:53.187Z,96930.47
2022-09-18T11:06:00.675Z,96939.03
2022-09-18T11:11:11.679Z,96930.19
2022-09-18T11:16:24.248Z,96933.22
2022-09-18T11:21:31.134Z,96927.25
2022-09-18T11:26:35.600Z,96922.84
2022-09-18T11:31:44.771Z,96914.91
2022-09-18T11:37:00.118Z,96913.13
2022-09-18T11:42:10.858Z,96910.38
2022-09-18T11:47:40.775Z,96898.63
2022-09-18T11:52:55.477Z,96897.00
2022-09-18T11:58:04.371Z,96894.78
2022-09-18T12:03:24.533Z,96894.88
2022-09-18T12:08:44.578Z,96885.88
2022-09-18T12:14:05.835Z,96883.81
2022-09-18T12:19:15.528Z,96880.84
2022-09-18T12:24:22.884Z,96863.25
2022-09-18T12:30:07.155Z,96855.03
2022-09-18T12:35:21.383Z,96860.63
2022-09-18T12:40:38.456Z,96856.25
2022-09-18T12:46:03.198Z,96853.28
2022-09-18T12:51:23.954Z,96849.75
2022-09-18T12:56:44.485Z,96846.91
2022-09-18T13:01:52.931Z,96853.28
2022-09-18T13:07:03.378Z,96851.34
2022-09-18T13:12:19.883Z,96853.69
2022-09-18T13:17:36.349Z,96857.25
2022-09-18T13:22:46.332Z,96861.34
2022-09-18T13:27:54.203Z,96852.94
2022-09-18T13:33:01.959Z,96855.31
2022-09-18T13:38:22.249Z,96854.75
2022-09-18T13:43:39.144Z,96859.69
2022-09-18T13:48:47.299Z,96852.63
2022-09-18T13:54:19.311Z,96861.41
2022-09-18T13:59:47.557Z,96857.88
2022-09-18T14:05:06.443Z,96852.13
2022-09-18T14:10:23.985Z,96855.00
2022-09-18T14:15:29.181Z,96846.34
2022-09-18T14:20:33.686Z,96848.78
2022-09-18T14:25:46.486Z,96852.75
2022-09-18T14:31:17.967Z,96856.78
2022-09-18T14:36:21.850Z,96856.38
2022-09-18T14:41:33.109Z,96848.88
2022-09-18T14:46:54.471Z,96853.66
2022-09-18T14:52:03.873Z,96851.25
2022-09-18T14:57:08.043Z,96864.59
2022-09-18T15:02:22.032Z,96859.47
2022-09-18T15:07:25.922Z,96861.56
2022-09-18T15:12:34.806Z,96862.41
2022-09-18T15:17:40.032Z,96862.53
2022-09-18T15:22:46.372Z,96862.13
2022-09-18T15:27:51.229Z,96861.22
2022-09-18T15:33:03.771Z,96854.69
2022-09-18T15:38:16.695Z,96854.28
2022-09-18T15:43:44.045Z,96852.75
2022-09-18T15:48:51.580Z,96846.72
2022-09-18T15:54:05.386Z,96849.66
2022-09-18T15:59:19.227Z,96852.44
2022-09-18T16:04:27.159Z,96854.81
2022-09-18T16:09:36.749Z,96855.34
2022-09-18T16:14:50.657Z,96839.19
2022-09-18T16:19:58.939Z,96808.28
2022-09-18T16:25:05.391Z,96787.97
2022-09-18T16:30:16.101Z,96771.88
2022-09-18T16:35:22.058Z,96769.31
2022-09-18T16:40:31.352Z,96789.72
2022-09-18T16:45:34.858Z,96800.25
2022-09-18T16:50:40.033Z,96798.25
2022-09-18T16:55:47.349Z,96797.88
2022-09-18T17:00:51.169Z,96800.03
2022-09-18T17:05:56.266Z,96804.78
2022-09-18T17:10:59.967Z,96784.28
2022-09-18T17:16:04.026Z,96801.19
2022-09-18T17:21:09.219Z,96794.56
2022-09-18T17:26:14.671Z,96811.50
2022-09-18T17:31:20.035Z,96814.91
2022-09-18T17:36:25.596Z,96819.34
2022-09-18T17:41:29.260Z,96827.47
2022-09-18T17:46:33.256Z,96825.03
2022-09-18T17:51:41.365Z,96822.13
2022-09-18T17:56:45.488Z,96817.03
2022-09-18T18:01:49.189Z,96818.00
2022-09-18T18:06:54.399Z,96821.63
2022-09-18T18:11:58.359Z,96823.97
2022-09-18T18:17:08.522Z,96834.63
2022-09-18T18:22:14.495Z,96833.13
2022-09-18T18:27:21.896Z,96838.75
2022-09-18T18:32:26.696Z,96833.63
2022-09-18T18:37:33.980Z,96833.91
2022-09-18T18:42:39.637Z,96845.63
2022-09-18T18:47:58.948Z,96836.34
2022-09-18T18:53:04.311Z,96832.03
2022-09-18T18:58:08.985Z,96841.72
2022-09-18T19:03:16.152Z,96835.00
2022-09-18T19:08:21.769Z,96831.41
2022-09-18T19:13:27.489Z,96836.34
2022-09-18T19:18:37.841Z,96832.22
2022-09-18T19:23:44.039Z,96829.75
2022-09-18T19:28:52.575Z,96830.06
2022-09-18T19:33:57.943Z,96836.50
2022-09-18T19:39:05.801Z,96843.69
2022-09-18T19:44:17.813Z,96842.09
2022-09-18T19:49:26.084Z,96842.56
2022-09-18T19:54:49.534Z,96841.50
2022-09-18T19:59:57.182Z,96855.28
2022-09-18T20:05:01.976Z,96833.72
2022-09-18T20:10:09.104Z,96850.84
2022-09-18T20:15:15.209Z,96847.75
2022-09-18T20:20:19.040Z,96847.84
2022-09-18T20:25:28.477Z,96849.78
2022-09-18T20:30:32.381Z,96851.50
2022-09-18T20:35:38.941Z,96842.34
2022-09-18T20:40:45.073Z,96845.59
2022-09-18T20:46:00.120Z,96838.69
2022-09-18T20:51:09.626Z,96845.81
2022-09-18T20:56:16.596Z,96858.66
2022-09-18T21:01:22.202Z,96854.97
2022-09-18T21:06:27.437Z,96844.41
2022-09-18T21:11:36.398Z,96834.53
2022-09-18T21:16:43.055Z,96830.44
2022-09-18T21:21:47.406Z,96815.31
2022-09-18T21:26:53.567Z,96817.31
2022-09-18T21:31:59.413Z,96816.41
2022-09-18T21:37:05.400Z,96816.66
2022-09-18T21:42:11.021Z,96820.28
2022-09-18T21:47:14.801Z,96818.03
2022-09-18T21:52:18.343Z,96827.09
2022-09-18T21:57:24.611Z,96839.72
2022-09-18T22:02:28.110Z,96837.66
2022-09-18T22:07:31.863Z,96828.31
2022-09-18T22:12:39.009Z,96839.47
2022-09-18T22:17:42.558Z,96827.22
2022-09-18T22:22:46.441Z,96827.09
2022-09-18T22:27:51.667Z,96827.34
2022-09-18T22:32:55.794Z,96822.56
2022-09-18T22:37:59.317Z,96821.09
2022-09-18T22:43:04.214Z,96829.63
2022-09-18T22:48:07.605Z,96831.97
2022-09-18T22:53:12.078Z,96836.03
2022-09-18T22:58:16.958Z,96819.34
2022-09-18T23:03:20.343Z,96820.75
2022-09-18T23:08:24.242Z,96815.06
2022-09-18T23:13:29.221Z,96817.28
2022-09-18T23:18:32.794Z,96817.88
2022-09-18T23:23:38.084Z,96820.66
2022-09-18T23:28:44.849Z,96819.75
2022-09-18T23:33:50.811Z,96826.34
2022-09-18T23:38:56.218Z,96828.00
2022-09-18T23:44:01.912Z,96827.75
2022-09-18T23:49:07.231Z,96828.63
2022-09-18T23:54:16.617Z,96827.34
2022-09-18T23:59:23.329Z,96821.56
